Time;durP1;ratioP1;P1;durP2;ratioP2;P2;SDS_P1;SDS_P2;PMS_P1;PMS_P2;Temp;Humidity;BMP_temperature;BMP_pressure;BME280_temperature;BME280_humidity;BME280_pressure;Samples;Min_cycle;Max_cycle;Signal;HPM_P1;HPM_P2
2022/01/08 00:01:37;;;;;;;;;;;;;;;2.72;nan;99995.69;5028279;28;19930;-87
2022/01/08 00:04:02;;;;;;;;;;;;;;;2.70;nan;99992.38;5029238;28;20032;-87
2022/01/08 00:06:27;;;;;;;;;;;;;;;2.78;nan;99987.41;5025507;28;20020;-84
2022/01/08 00:08:53;;;;;;;;;;;;;;;2.79;nan;99985.59;5036697;28;19921;-83
2022/01/08 00:11:20;;;;;;;;;;;;;;;2.82;nan;99980.19;5023353;28;19956;-85
2022/01/08 00:13:46;;;;;;;;;;;;;;;2.79;nan;99985.59;5038067;28;19936;-85
2022/01/08 00:16:12;;;;;;;;;;;;;;;2.74;nan;99981.59;5028154;28;19921;-85
2022/01/08 00:18:37;;;;;;;;;;;;;;;2.78;nan;99978.72;5032427;28;19921;-85
2022/01/08 00:21:02;;;;;;;;;;;;;;;2.83;nan;99976.59;5024399;28;19923;-86
2022/01/08 00:23:27;;;;;;;;;;;;;;;2.86;nan;99981.59;5028200;28;19961;-86
2022/01/08 00:25:53;;;;;;;;;;;;;;;2.79;nan;99968.19;5012859;28;19917;-86
2022/01/08 00:28:18;;;;;;;;;;;;;;;2.71;nan;99965.31;5034624;28;19925;-87
2022/01/08 00:30:45;;;;;;;;;;;;;;;2.62;nan;99948.56;5033008;28;20024;-86
2022/01/08 00:33:10;;;;;;;;;;;;;;;2.66;nan;99947.38;5035743;28;20398;-86
2022/01/08 00:35:35;;;;;;;;;;;;;;;2.64;nan;99943.22;5038020;28;19928;-86
2022/01/08 00:38:01;;;;;;;;;;;;;;;2.62;nan;99939.88;5040872;28;20271;-87
2022/01/08 00:40:26;;;;;;;;;;;;;;;2.60;nan;99931.34;5038454;28;19924;-86
2022/01/08 00:42:51;;;;;;;;;;;;;;;2.63;nan;99928.50;5038621;28;20108;-86
2022/01/08 00:45:16;;;;;;;;;;;;;;;2.59;nan;99922.69;5037271;28;19921;-86
2022/01/08 00:47:42;;;;;;;;;;;;;;;2.59;nan;99914.84;5040237;28;19943;-86
2022/01/08 00:50:07;;;;;;;;;;;;;;;2.61;nan;99896.47;5039607;28;19925;-86
2022/01/08 00:52:33;;;;;;;;;;;;;;;2.61;nan;99897.31;5037354;28;19917;-86
2022/01/08 00:54:58;;;;;;;;;;;;;;;2.62;nan;99890.28;5023147;28;19921;-86
2022/01/08 00:57:23;;;;;;;;;;;;;;;2.62;nan;99885.94;5041700;28;19929;-85
2022/01/08 00:59:48;;;;;;;;;;;;;;;2.66;nan;99883.91;5043775;28;19927;-86
2022/01/08 01:02:14;;;;;;;;;;;;;;;2.63;nan;99873.69;5031611;28;19941;-85
2022/01/08 01:04:39;;;;;;;;;;;;;;;2.66;nan;99863.03;5037782;28;19928;-85
2022/01/08 01:07:04;;;;;;;;;;;;;;;2.65;nan;99858.75;5036269;28;20395;-87
2022/01/08 01:09:29;;;;;;;;;;;;;;;2.70;nan;99852.22;5024701;28;19928;-86
2022/01/08 01:11:57;;;;;;;;;;;;;;;2.71;nan;99851.25;5034537;28;20032;-87
2022/01/08 01:14:23;;;;;;;;;;;;;;;2.74;nan;99838.00;5035741;28;20383;-86
2022/01/08 01:16:49;;;;;;;;;;;;;;;2.72;nan;99834.66;5018226;28;19928;-86
2022/01/08 01:19:14;;;;;;;;;;;;;;;2.75;nan;99825.78;5033922;28;19921;-86
2022/01/08 01:21:39;;;;;;;;;;;;;;;2.80;nan;99820.19;5035339;28;19924;-86
2022/01/08 01:24:10;;;;;;;;;;;;;;;2.75;nan;99810.09;5026646;28;19944;-86
2022/01/08 01:26:38;;;;;;;;;;;;;;;2.80;nan;99796.69;5027345;28;19925;-86
2022/01/08 01:47:00;;;;;;;;;;;;;;;3.00;nan;99762.00;4996553;28;19929;-86
2022/01/08 01:48:22;;;;;;;;;;;;;;;3.04;nan;99747.75;5014607;28;19940;-85
2022/01/08 01:50:47;;;;;;;;;;;;;;;2.99;nan;99747.28;5018997;28;19925;-87
2022/01/08 01:53:13;;;;;;;;;;;;;;;2.95;nan;99743.25;5010992;28;19928;-87
2022/01/08 01:55:41;;;;;;;;;;;;;;;3.01;nan;99740.16;5033138;28;19917;-87
2022/01/08 01:58:07;;;;;;;;;;;;;;;3.02;nan;99736.59;5038162;28;19924;-89
2022/01/08 02:00:33;;;;;;;;;;;;;;;3.03;nan;99738.25;5050246;28;19917;-89
2022/01/08 02:02:59;;;;;;;;;;;;;;;2.97;nan;99742.16;5050621;28;19920;-87
2022/01/08 02:05:25;;;;;;;;;;;;;;;2.97;nan;99738.75;5049713;28;19917;-89
2022/01/08 02:07:50;;;;;;;;;;;;;;;3.00;nan;99738.47;5049601;28;20411;-87
2022/01/08 02:10:17;;;;;;;;;;;;;;;2.91;nan;99734.84;5043089;28;19918;-88
2022/01/08 02:12:45;;;;;;;;;;;;;;;2.91;nan;99729.63;5046053;28;19928;-87
2022/01/08 02:15:11;;;;;;;;;;;;;;;2.86;nan;99738.75;5044966;28;20359;-87
2022/01/08 02:17:44;;;;;;;;;;;;;;;2.86;nan;99741.38;5047340;28;19924;-86
2022/01/08 02:20:10;;;;;;;;;;;;;;;2.85;nan;99737.09;5048928;28;20354;-88
2022/01/08 02:22:36;;;;;;;;;;;;;;;2.78;nan;99730.72;5049245;28;19913;-87
2022/01/08 02:25:02;;;;;;;;;;;;;;;2.78;nan;99733.31;5043329;28;19988;-86
2022/01/08 02:27:27;;;;;;;;;;;;;;;2.68;nan;99730.59;5026493;28;20077;-88
2022/01/08 02:29:53;;;;;;;;;;;;;;;2.64;nan;99724.78;5036665;28;19955;-85
2022/01/08 02:32:20;;;;;;;;;;;;;;;2.58;nan;99733.13;5035632;28;20031;-85
2022/01/08 02:34:47;;;;;;;;;;;;;;;2.64;nan;99727.41;5033540;28;20011;-86
2022/01/08 02:37:13;;;;;;;;;;;;;;;2.57;nan;99728.81;5022235;28;19917;-87
2022/01/08 02:39:41;;;;;;;;;;;;;;;2.45;nan;99730.63;5028786;28;20132;-86
2022/01/08 02:42:07;;;;;;;;;;;;;;;2.42;nan;99725.66;5028936;28;19976;-88
2022/01/08 02:44:33;;;;;;;;;;;;;;;2.26;nan;99723.38;5023907;28;19925;-87
2022/01/08 02:46:58;;;;;;;;;;;;;;;2.21;nan;99724.69;5027281;28;19980;-87
2022/01/08 02:49:23;;;;;;;;;;;;;;;2.16;nan;99732.88;5011493;28;20047;-87
2022/01/08 02:51:49;;;;;;;;;;;;;;;2.01;nan;99727.06;5012160;28;20285;-85
2022/01/08 02:54:14;;;;;;;;;;;;;;;2.01;nan;99728.84;5018691;28;19965;-86
2022/01/08 02:56:40;;;;;;;;;;;;;;;1.98;nan;99722.09;5022851;28;19921;-86
2022/01/08 02:59:06;;;;;;;;;;;;;;;1.98;nan;99729.91;5010671;28;20371;-86
2022/01/08 03:01:32;;;;;;;;;;;;;;;1.87;nan;99716.84;5026977;28;19921;-86
2022/01/08 03:03:57;;;;;;;;;;;;;;;1.78;nan;99718.34;5030131;28;19925;-87
2022/01/08 03:06:22;;;;;;;;;;;;;;;1.74;nan;99718.69;5031040;28;20401;-86
2022/01/08 03:08:48;;;;;;;;;;;;;;;1.55;nan;99724.44;5029421;28;20314;-86
2022/01/08 03:11:13;;;;;;;;;;;;;;;1.41;nan;99718.50;5018888;28;19921;-87
2022/01/08 03:13:38;;;;;;;;;;;;;;;1.41;nan;99712.47;5017753;28;20454;-87
2022/01/08 03:16:03;;;;;;;;;;;;;;;1.30;nan;99720.25;5018073;28;19922;-87
2022/01/08 03:18:29;;;;;;;;;;;;;;;1.28;nan;99709.91;5028866;28;19961;-86
2022/01/08 03:21:13;;;;;;;;;;;;;;;1.17;nan;99720.28;5030346;28;19921;-86
2022/01/08 03:23:46;;;;;;;;;;;;;;;1.06;nan;99721.91;5011589;28;20311;-86
2022/01/08 03:26:11;;;;;;;;;;;;;;;1.03;nan;99723.91;5015177;28;19924;-87
2022/01/08 03:28:36;;;;;;;;;;;;;;;1.05;nan;99722.03;5029791;28;19921;-87
2022/01/08 03:31:01;;;;;;;;;;;;;;;1.02;nan;99715.25;5031280;28;20283;-86
2022/01/08 03:33:26;;;;;;;;;;;;;;;1.00;nan;99711.94;5029430;28;20297;-86
2022/01/08 03:35:52;;;;;;;;;;;;;;;1.03;nan;99705.69;5030882;28;19983;-86
2022/01/08 03:38:17;;;;;;;;;;;;;;;1.05;nan;99706.41;5033264;28;19928;-86
2022/01/08 03:40:42;;;;;;;;;;;;;;;1.03;nan;99696.09;5047304;28;19921;-86
2022/01/08 03:43:07;;;;;;;;;;;;;;;1.02;nan;99696.19;5047138;28;20003;-86
2022/01/08 03:45:32;;;;;;;;;;;;;;;1.06;nan;99689.84;5037352;28;20015;-86
2022/01/08 03:50:32;;;;;;;;;;;;;;;1.16;nan;99688.22;5023664;28;20119;-86
2022/01/08 03:52:57;;;;;;;;;;;;;;;1.17;nan;99695.09;5012198;28;20203;-86
2022/01/08 03:55:22;;;;;;;;;;;;;;;1.11;nan;99692.09;5013935;28;19934;-86
2022/01/08 03:57:48;;;;;;;;;;;;;;;1.08;nan;99695.75;5008631;28;19957;-86
2022/01/08 04:00:14;;;;;;;;;;;;;;;1.19;nan;99684.56;5013033;28;19917;-86
2022/01/08 04:02:39;;;;;;;;;;;;;;;1.30;nan;99686.38;5030748;28;19933;-86
2022/01/08 04:05:04;;;;;;;;;;;;;;;1.28;nan;99699.50;5022611;28;20438;-86
2022/01/08 04:07:29;;;;;;;;;;;;;;;1.25;nan;99713.59;5010140;28;19967;-85
2022/01/08 04:09:55;;;;;;;;;;;;;;;1.18;nan;99707.16;5010876;28;20235;-86
2022/01/08 04:12:30;;;;;;;;;;;;;;;1.31;nan;99717.53;5008864;28;19917;-85
2022/01/08 04:15:05;;;;;;;;;;;;;;;1.35;nan;99718.13;5024228;28;19927;-86
2022/01/08 04:17:30;;;;;;;;;;;;;;;1.43;nan;99721.84;5029886;28;19945;-86
2022/01/08 04:19:56;;;;;;;;;;;;;;;1.43;nan;99727.03;5027661;28;20022;-86
2022/01/08 04:22:23;;;;;;;;;;;;;;;1.36;nan;99733.66;5015917;28;19968;-86
2022/01/08 04:24:48;;;;;;;;;;;;;;;1.41;nan;99735.91;5025544;28;19921;-87
2022/01/08 04:27:13;;;;;;;;;;;;;;;1.51;nan;99736.06;5028397;28;20383;-86
2022/01/08 04:29:38;;;;;;;;;;;;;;;1.39;nan;99748.22;5033052;28;20020;-86
2022/01/08 04:32:04;;;;;;;;;;;;;;;1.45;nan;99746.00;5038335;28;19918;-86
2022/01/08 04:34:30;;;;;;;;;;;;;;;1.42;nan;99758.41;5036905;28;19928;-85
2022/01/08 04:36:55;;;;;;;;;;;;;;;1.42;nan;99768.81;5038901;28;19917;-86
2022/01/08 04:39:20;;;;;;;;;;;;;;;1.41;nan;99780.19;5038209;28;20382;-86
2022/01/08 04:41:45;;;;;;;;;;;;;;;1.45;nan;99789.44;5031234;28;19928;-86
2022/01/08 04:44:11;;;;;;;;;;;;;;;1.46;nan;99781.50;5033350;28;19917;-86
2022/01/08 04:46:38;;;;;;;;;;;;;;;1.48;nan;99789.22;5034581;28;19925;-85
2022/01/08 04:49:04;;;;;;;;;;;;;;;1.42;nan;99794.88;5030168;28;19975;-85
2022/01/08 04:51:29;;;;;;;;;;;;;;;1.38;nan;99812.50;5026812;28;19925;-86
2022/01/08 04:53:54;;;;;;;;;;;;;;;1.44;nan;99819.88;5021380;28;19917;-85
2022/01/08 04:56:20;;;;;;;;;;;;;;;1.41;nan;99835.72;5032861;28;19921;-86
2022/01/08 04:58:45;;;;;;;;;;;;;;;1.31;nan;99836.47;5031436;28;20417;-86
2022/01/08 05:01:14;;;;;;;;;;;;;;;1.25;nan;99835.16;5030188;28;20369;-86
2022/01/08 05:03:40;;;;;;;;;;;;;;;1.16;nan;99860.06;5030139;28;20358;-86
2022/01/08 05:06:05;;;;;;;;;;;;;;;1.00;nan;99864.69;5028680;28;20024;-86
2022/01/08 05:08:30;;;;;;;;;;;;;;;0.83;nan;99877.13;5028644;28;19930;-86
2022/01/08 05:10:55;;;;;;;;;;;;;;;0.78;nan;99896.56;5025025;28;19921;-85
2022/01/08 05:13:21;;;;;;;;;;;;;;;0.80;nan;99905.94;5033106;28;19918;-84
2022/01/08 05:15:46;;;;;;;;;;;;;;;0.59;nan;99918.63;5031265;28;20392;-85
2022/01/08 05:18:12;;;;;;;;;;;;;;;0.50;nan;99916.66;5029445;28;19921;-85
2022/01/08 05:20:40;;;;;;;;;;;;;;;0.49;nan;99920.19;5036283;28;19917;-86
2022/01/08 05:23:06;;;;;;;;;;;;;;;0.39;nan;99930.38;5036632;28;19920;-85
2022/01/08 05:25:31;;;;;;;;;;;;;;;0.55;nan;99940.59;5017198;28;20008;-85
2022/01/08 05:27:57;;;;;;;;;;;;;;;0.42;nan;99942.34;5031980;28;19997;-85
2022/01/08 05:30:23;;;;;;;;;;;;;;;0.49;nan;99950.56;5019681;28;19921;-84
2022/01/08 05:32:48;;;;;;;;;;;;;;;0.37;nan;99958.25;5032517;28;19925;-85
2022/01/08 05:35:14;;;;;;;;;;;;;;;0.40;nan;99973.63;5037048;28;20352;-84
2022/01/08 05:37:39;;;;;;;;;;;;;;;0.39;nan;99994.56;5030915;28;20344;-85
2022/01/08 05:40:05;;;;;;;;;;;;;;;0.33;nan;100002.75;5031988;28;19921;-85
2022/01/08 05:42:30;;;;;;;;;;;;;;;0.37;nan;100010.25;5034517;28;19928;-85
2022/01/08 05:44:55;;;;;;;;;;;;;;;0.46;nan;100023.63;5034611;28;19917;-85
2022/01/08 05:47:21;;;;;;;;;;;;;;;0.41;nan;100023.91;5035418;28;20421;-85
2022/01/08 05:49:46;;;;;;;;;;;;;;;0.38;nan;100037.94;5035440;28;19921;-85
2022/01/08 05:52:12;;;;;;;;;;;;;;;0.47;nan;100052.09;5031794;28;19921;-84
2022/01/08 05:54:37;;;;;;;;;;;;;;;0.43;nan;100061.06;5029339;28;19921;-84
2022/01/08 05:57:02;;;;;;;;;;;;;;;0.41;nan;100073.31;5035143;28;20294;-85
2022/01/08 05:59:28;;;;;;;;;;;;;;;0.48;nan;100084.16;5035401;28;20375;-85
2022/01/08 06:01:56;;;;;;;;;;;;;;;0.53;nan;100089.91;5036738;28;19966;-85
2022/01/08 06:04:22;;;;;;;;;;;;;;;0.54;nan;100089.78;5035820;28;19917;-85
2022/01/08 06:06:47;;;;;;;;;;;;;;;0.57;nan;100104.38;5033339;28;19986;-85
2022/01/08 06:09:12;;;;;;;;;;;;;;;0.62;nan;100100.56;5024948;28;19921;-85
2022/01/08 06:11:37;;;;;;;;;;;;;;;0.68;nan;100116.72;5013945;28;19933;-85
2022/01/08 06:14:03;;;;;;;;;;;;;;;0.67;nan;100113.28;5020906;28;19925;-85
2022/01/08 06:16:33;;;;;;;;;;;;;;;0.74;nan;100124.97;5035777;28;20008;-84
2022/01/08 06:18:59;;;;;;;;;;;;;;;0.80;nan;100129.75;5039066;28;19984;-85
2022/01/08 06:21:24;;;;;;;;;;;;;;;0.76;nan;100132.66;5046157;28;19918;-85
2022/01/08 06:23:49;;;;;;;;;;;;;;;0.84;nan;100135.63;5047057;28;19925;-84
2022/01/08 06:26:14;;;;;;;;;;;;;;;0.79;nan;100135.09;5044549;28;19924;-85
2022/01/08 06:28:40;;;;;;;;;;;;;;;0.77;nan;100144.75;5037827;28;20014;-85
2022/01/08 06:31:05;;;;;;;;;;;;;;;0.81;nan;100149.66;5034608;28;20302;-84
2022/01/08 06:33:30;;;;;;;;;;;;;;;0.85;nan;100156.31;5035166;28;20405;-85
2022/01/08 06:35:56;;;;;;;;;;;;;;;0.95;nan;100166.13;5035133;28;20366;-85
2022/01/08 06:38:21;;;;;;;;;;;;;;;0.94;nan;100170.53;5033849;28;19929;-85
2022/01/08 06:40:46;;;;;;;;;;;;;;;0.90;nan;100171.63;5033897;28;19925;-85
2022/01/08 06:43:12;;;;;;;;;;;;;;;0.93;nan;100186.22;5033003;28;19956;-85
2022/01/08 06:45:37;;;;;;;;;;;;;;;0.93;nan;100181.88;5032485;28;19925;-85
2022/01/08 06:48:02;;;;;;;;;;;;;;;0.96;nan;100193.84;5033636;28;19964;-85
2022/01/08 06:50:28;;;;;;;;;;;;;;;0.85;nan;100197.13;5032147;28;20375;-85
2022/01/08 06:52:54;;;;;;;;;;;;;;;0.87;nan;100199.66;5033859;28;19917;-85
2022/01/08 06:55:19;;;;;;;;;;;;;;;0.86;nan;100201.44;5032940;28;19990;-85
2022/01/08 06:57:44;;;;;;;;;;;;;;;0.89;nan;100205.59;5034124;28;20457;-85
2022/01/08 07:00:10;;;;;;;;;;;;;;;0.86;nan;100217.03;5032105;28;19921;-85
2022/01/08 07:02:35;;;;;;;;;;;;;;;0.87;nan;100210.88;5033068;28;19924;-85
2022/01/08 07:05:00;;;;;;;;;;;;;;;0.92;nan;100221.84;5034057;28;19924;-85
2022/01/08 07:07:27;;;;;;;;;;;;;;;0.95;nan;100231.22;5032948;28;20323;-85
2022/01/08 07:09:52;;;;;;;;;;;;;;;0.90;nan;100228.91;5031710;28;19924;-85
2022/01/08 07:12:17;;;;;;;;;;;;;;;0.91;nan;100230.59;5031925;28;19929;-85
2022/01/08 07:14:42;;;;;;;;;;;;;;;0.93;nan;100230.47;5032335;28;19921;-84
2022/01/08 07:17:08;;;;;;;;;;;;;;;0.93;nan;100246.09;5030470;28;20440;-84
2022/01/08 07:19:33;;;;;;;;;;;;;;;0.88;nan;100246.38;5031539;28;19928;-85
2022/01/08 07:22:00;;;;;;;;;;;;;;;0.92;nan;100253.06;5033129;28;19921;-84
2022/01/08 07:24:25;;;;;;;;;;;;;;;0.98;nan;100257.09;5030908;28;21493;-85
2022/01/08 07:26:53;;;;;;;;;;;;;;;1.01;nan;100265.53;5031063;28;19936;-84
2022/01/08 07:29:18;;;;;;;;;;;;;;;1.00;nan;100270.81;5033837;28;19917;-85
2022/01/08 07:31:43;;;;;;;;;;;;;;;1.04;nan;100267.91;5032734;28;19928;-84
2022/01/08 07:34:09;;;;;;;;;;;;;;;1.05;nan;100281.81;5031822;28;19927;-84
2022/01/08 07:36:34;;;;;;;;;;;;;;;1.03;nan;100284.50;5032787;28;19921;-85
2022/01/08 07:38:59;;;;;;;;;;;;;;;1.02;nan;100297.59;5033229;28;19993;-85
2022/01/08 07:41:25;;;;;;;;;;;;;;;1.02;nan;100308.84;5032844;28;20016;-85
2022/01/08 07:43:50;;;;;;;;;;;;;;;1.12;nan;100309.13;5032025;28;19917;-84
2022/01/08 07:46:15;;;;;;;;;;;;;;;1.05;nan;100323.47;5030800;28;19984;-84
2022/01/08 07:48:41;;;;;;;;;;;;;;;1.12;nan;100323.88;5030221;28;19971;-84
2022/01/08 07:51:06;;;;;;;;;;;;;;;1.15;nan;100326.31;5028758;28;20286;-85
2022/01/08 07:53:32;;;;;;;;;;;;;;;1.15;nan;100334.97;5032201;28;19924;-86
2022/01/08 07:55:57;;;;;;;;;;;;;;;1.18;nan;100331.31;5032674;28;19943;-85
2022/01/08 07:58:27;;;;;;;;;;;;;;;1.17;nan;100340.06;5031100;28;19928;-85
2022/01/08 08:00:57;;;;;;;;;;;;;;;1.16;nan;100351.41;5032005;28;20340;-85
2022/01/08 08:03:22;;;;;;;;;;;;;;;1.18;nan;100347.78;5033706;28;20337;-85
2022/01/08 08:05:47;;;;;;;;;;;;;;;1.22;nan;100359.69;5030727;28;19921;-85
2022/01/08 08:08:16;;;;;;;;;;;;;;;1.21;nan;100367.59;5031791;28;20011;-85
2022/01/08 08:10:42;;;;;;;;;;;;;;;1.27;nan;100364.63;5032539;28;20298;-85
2022/01/08 08:13:07;;;;;;;;;;;;;;;1.26;nan;100368.13;5033805;28;19921;-85
2022/01/08 08:15:32;;;;;;;;;;;;;;;1.27;nan;100364.63;5033743;28;19918;-85
2022/01/08 08:17:58;;;;;;;;;;;;;;;1.21;nan;100370.19;5030905;28;20341;-85
2022/01/08 08:20:23;;;;;;;;;;;;;;;1.18;nan;100368.63;5032066;28;19921;-85
2022/01/08 08:22:48;;;;;;;;;;;;;;;1.23;nan;100368.34;5025907;28;19972;-85
2022/01/08 08:25:13;;;;;;;;;;;;;;;1.22;nan;100367.50;5028915;28;19921;-85
2022/01/08 08:27:39;;;;;;;;;;;;;;;1.26;nan;100369.00;5029058;28;19936;-85
2022/01/08 08:30:05;;;;;;;;;;;;;;;1.33;nan;100372.03;5032572;28;19917;-85
2022/01/08 08:32:31;;;;;;;;;;;;;;;1.38;nan;100377.81;5033357;28;19921;-85
2022/01/08 08:34:56;;;;;;;;;;;;;;;1.41;nan;100382.00;5032128;28;19924;-85
2022/01/08 08:37:21;;;;;;;;;;;;;;;1.35;nan;100388.41;5031585;28;19944;-85
2022/01/08 08:39:47;;;;;;;;;;;;;;;1.31;nan;100396.50;5033235;28;19917;-85
2022/01/08 08:42:12;;;;;;;;;;;;;;;1.34;nan;100386.75;5031984;28;20025;-84
2022/01/08 08:44:37;;;;;;;;;;;;;;;1.48;nan;100391.91;5022303;28;19921;-85
2022/01/08 08:47:04;;;;;;;;;;;;;;;1.48;nan;100404.13;5032971;28;19926;-85
2022/01/08 08:49:29;;;;;;;;;;;;;;;1.52;nan;100399.53;5020491;28;19935;-85
2022/01/08 08:51:54;;;;;;;;;;;;;;;1.47;nan;100400.66;5033175;28;20004;-85
2022/01/08 08:54:20;;;;;;;;;;;;;;;1.55;nan;100412.38;5034138;28;19929;-86
2022/01/08 08:56:45;;;;;;;;;;;;;;;1.66;nan;100407.31;5032407;28;19925;-86
2022/01/08 08:59:12;;;;;;;;;;;;;;;1.62;nan;100414.50;5033197;28;20206;-85
2022/01/08 09:01:37;;;;;;;;;;;;;;;1.65;nan;100418.69;5032211;28;20013;-86
2022/01/08 09:04:03;;;;;;;;;;;;;;;1.76;nan;100425.81;5036527;28;19960;-85
2022/01/08 09:06:30;;;;;;;;;;;;;;;1.76;nan;100425.81;5039737;28;19929;-86
2022/01/08 09:08:55;;;;;;;;;;;;;;;1.80;nan;100427.28;5040388;28;19928;-88
2022/01/08 09:11:20;;;;;;;;;;;;;;;1.84;nan;100418.34;5041721;28;19921;-86
2022/01/08 09:13:45;;;;;;;;;;;;;;;1.84;nan;100431.38;5042439;28;19917;-86
2022/01/08 09:16:11;;;;;;;;;;;;;;;1.88;nan;100440.66;5039528;28;20306;-86
2022/01/08 09:18:37;;;;;;;;;;;;;;;1.84;nan;100426.19;5025389;28;20011;-85
2022/01/08 09:21:03;;;;;;;;;;;;;;;1.88;nan;100432.84;5040925;28;19964;-86
2022/01/08 09:23:28;;;;;;;;;;;;;;;1.89;nan;100435.38;5040277;28;19928;-86
2022/01/08 09:25:53;;;;;;;;;;;;;;;1.85;nan;100441.69;5041963;28;19917;-85
2022/01/08 09:28:19;;;;;;;;;;;;;;;1.96;nan;100440.19;5025287;28;19930;-86
2022/01/08 09:30:44;;;;;;;;;;;;;;;1.84;nan;100436.59;5041982;28;19921;-87
2022/01/08 09:33:11;;;;;;;;;;;;;;;1.88;nan;100443.28;5040765;28;19996;-86
2022/01/08 09:35:36;;;;;;;;;;;;;;;1.86;nan;100439.91;5034183;28;19917;-85
2022/01/08 09:38:02;;;;;;;;;;;;;;;1.82;nan;100441.91;5028155;28;19928;-86
2022/01/08 09:40:28;;;;;;;;;;;;;;;1.87;nan;100449.44;5036125;28;19928;-88
2022/01/08 09:42:54;;;;;;;;;;;;;;;1.91;nan;100451.75;5044447;28;19931;-85
2022/01/08 09:45:19;;;;;;;;;;;;;;;2.05;nan;100456.09;5041043;28;19968;-86
2022/01/08 09:47:44;;;;;;;;;;;;;;;2.11;nan;100453.06;5040629;28;19929;-86
2022/01/08 09:50:10;;;;;;;;;;;;;;;2.06;nan;100449.91;5041901;28;19932;-86
2022/01/08 09:52:38;;;;;;;;;;;;;;;2.16;nan;100451.94;5041269;28;19929;-88
2022/01/08 09:55:04;;;;;;;;;;;;;;;2.21;nan;100453.28;5033327;28;20010;-87
2022/01/08 09:57:29;;;;;;;;;;;;;;;2.22;nan;100457.59;5038748;28;19925;-89
2022/01/08 09:59:55;;;;;;;;;;;;;;;2.37;nan;100458.38;5040341;28;19941;-85
2022/01/08 10:02:21;;;;;;;;;;;;;;;2.32;nan;100456.06;5039474;28;19971;-86
2022/01/08 10:04:46;;;;;;;;;;;;;;;2.36;nan;100455.84;5039500;28;20302;-86
2022/01/08 10:07:22;;;;;;;;;;;;;;;2.33;nan;100459.50;5034812;28;19932;-86
2022/01/08 10:10:01;;;;;;;;;;;;;;;2.29;nan;100456.25;5025004;28;19922;-86
2022/01/08 10:12:45;;;;;;;;;;;;;;;2.32;nan;100455.22;5043036;28;20003;-86
2022/01/08 10:17:57;;;;;;;;;;;;;;;2.34;nan;100456.78;5029263;28;19988;-86
2022/01/08 10:20:26;;;;;;;;;;;;;;;2.41;nan;100457.22;5038033;28;19929;-87
2022/01/08 10:22:59;;;;;;;;;;;;;;;2.28;nan;100443.31;5027741;28;19921;-86
2022/01/08 10:25:24;;;;;;;;;;;;;;;2.31;nan;100441.34;5053529;28;20341;-89
2022/01/08 10:27:49;;;;;;;;;;;;;;;2.29;nan;100439.78;5036605;28;19937;-86
2022/01/08 10:30:25;;;;;;;;;;;;;;;2.47;nan;100451.59;5037958;28;19928;-87
2022/01/08 10:32:54;;;;;;;;;;;;;;;2.44;nan;100451.78;5044427;28;19929;-87
2022/01/08 10:35:21;;;;;;;;;;;;;;;2.42;nan;100438.00;5020863;28;19917;-88
2022/01/08 10:37:52;;;;;;;;;;;;;;;2.58;nan;100437.84;5029784;28;19928;-87
2022/01/08 10:40:32;;;;;;;;;;;;;;;2.50;nan;100445.31;5037065;28;19929;-87
2022/01/08 10:42:58;;;;;;;;;;;;;;;2.58;nan;100427.41;5024628;28;19996;-88
2022/01/08 10:45:25;;;;;;;;;;;;;;;2.70;nan;100428.34;5018143;28;19948;-86
2022/01/08 10:48:02;;;;;;;;;;;;;;;2.82;nan;100435.34;5033676;28;19932;-87
2022/01/08 10:50:27;;;;;;;;;;;;;;;2.88;nan;100429.69;5025605;28;20333;-87
2022/01/08 10:52:52;;;;;;;;;;;;;;;3.03;nan;100427.81;5030722;28;20003;-87
2022/01/08 10:55:33;;;;;;;;;;;;;;;3.05;nan;100427.69;5037379;28;19920;-88
2022/01/08 10:57:58;;;;;;;;;;;;;;;3.01;nan;100416.63;5030923;28;19921;-87
2022/01/08 11:00:30;;;;;;;;;;;;;;;2.90;nan;100412.13;5032183;28;19975;-87
2022/01/08 11:02:56;;;;;;;;;;;;;;;3.05;nan;100414.63;5035738;28;20323;-88
2022/01/08 11:05:21;;;;;;;;;;;;;;;2.94;nan;100407.56;5034468;28;20004;-87
2022/01/08 11:07:46;;;;;;;;;;;;;;;2.97;nan;100402.94;5035916;28;19925;-87
2022/01/08 11:10:18;;;;;;;;;;;;;;;3.11;nan;100409.81;5035447;28;19917;-88
2022/01/08 11:12:45;;;;;;;;;;;;;;;3.27;nan;100400.94;5035311;28;20307;-87
2022/01/08 11:17:44;;;;;;;;;;;;;;;3.22;nan;100385.56;5032202;28;19921;-88
2022/01/08 11:20:09;;;;;;;;;;;;;;;3.30;nan;100385.84;5033174;28;19925;-87
2022/01/08 11:22:36;;;;;;;;;;;;;;;3.31;nan;100382.31;5016361;28;19988;-89
2022/01/08 11:25:06;;;;;;;;;;;;;;;3.20;nan;100384.84;5023496;28;19921;-87
2022/01/08 11:27:41;;;;;;;;;;;;;;;3.29;nan;100385.97;5021717;28;19928;-88
2022/01/08 11:30:06;;;;;;;;;;;;;;;3.39;nan;100376.53;5020920;28;19999;-89
2022/01/08 11:32:34;;;;;;;;;;;;;;;3.34;nan;100379.47;5031157;28;19921;-88
2022/01/08 11:34:59;;;;;;;;;;;;;;;3.19;nan;100372.69;5034412;28;19943;-88
2022/01/08 11:37:25;;;;;;;;;;;;;;;3.30;nan;100372.78;5033584;28;19921;-87
2022/01/08 11:39:51;;;;;;;;;;;;;;;3.19;nan;100370.09;5034629;28;19930;-87
2022/01/08 11:42:19;;;;;;;;;;;;;;;3.24;nan;100365.38;5024493;28;20009;-88
2022/01/08 11:44:44;;;;;;;;;;;;;;;3.33;nan;100367.34;5026002;28;19940;-87
2022/01/08 11:47:09;;;;;;;;;;;;;;;3.48;nan;100356.72;5023959;28;20302;-86
2022/01/08 11:49:35;;;;;;;;;;;;;;;3.45;nan;100352.56;5027132;28;20010;-87
2022/01/08 11:52:17;;;;;;;;;;;;;;;3.46;nan;100345.56;5030567;28;20005;-87
2022/01/08 11:54:44;;;;;;;;;;;;;;;3.42;nan;100341.50;5039316;28;19961;-88
2022/01/08 11:57:21;;;;;;;;;;;;;;;3.39;nan;100335.56;5047431;28;19924;-87
2022/01/08 11:59:47;;;;;;;;;;;;;;;3.13;nan;100329.56;5038847;28;19917;-86
2022/01/08 12:02:14;;;;;;;;;;;;;;;3.26;nan;100333.91;5035098;28;19929;-87
2022/01/08 12:04:41;;;;;;;;;;;;;;;3.27;nan;100331.22;5028664;28;19921;-88
2022/01/08 12:07:35;;;;;;;;;;;;;;;3.47;nan;100315.88;5022910;28;19925;-87
2022/01/08 12:10:20;;;;;;;;;;;;;;;3.61;nan;100313.06;5021164;28;20310;-88
2022/01/08 12:12:45;;;;;;;;;;;;;;;3.77;nan;100310.19;5022605;28;19932;-87
2022/01/08 12:15:11;;;;;;;;;;;;;;;3.99;nan;100306.78;5021952;28;20383;-88
2022/01/08 12:17:56;;;;;;;;;;;;;;;3.77;nan;100297.09;5023701;28;19928;-87
2022/01/08 12:20:41;;;;;;;;;;;;;;;3.81;nan;100296.75;5024630;28;19921;-87
2022/01/08 12:23:25;;;;;;;;;;;;;;;3.82;nan;100295.81;5022045;28;19922;-88
2022/01/08 12:25:50;;;;;;;;;;;;;;;3.75;nan;100280.69;5032332;28;19925;-86
2022/01/08 12:28:34;;;;;;;;;;;;;;;3.88;nan;100283.22;5032602;28;19939;-88
2022/01/08 12:31:18;;;;;;;;;;;;;;;3.85;nan;100280.84;5026329;28;19928;-88
2022/01/08 12:33:43;;;;;;;;;;;;;;;3.99;nan;100262.31;5031074;28;19921;-88
2022/01/08 12:36:27;;;;;;;;;;;;;;;3.91;nan;100260.28;5028738;28;19921;-86
2022/01/08 12:39:05;;;;;;;;;;;;;;;4.13;nan;100256.88;5031420;28;19921;-86
2022/01/08 12:41:30;;;;;;;;;;;;;;;4.14;nan;100247.22;5024069;28;19921;-86
2022/01/08 12:43:55;;;;;;;;;;;;;;;4.13;nan;100237.72;5026268;28;19974;-86
2022/01/08 12:46:24;;;;;;;;;;;;;;;4.17;nan;100236.53;5018972;28;22266;-86
2022/01/08 12:49:08;;;;;;;;;;;;;;;4.06;nan;100231.28;5021095;28;19929;-87
2022/01/08 12:51:46;;;;;;;;;;;;;;;3.99;nan;100215.22;5031129;28;19979;-85
2022/01/08 12:54:13;;;;;;;;;;;;;;;3.77;nan;100216.84;5029377;28;19921;-86
2022/01/08 12:56:45;;;;;;;;;;;;;;;3.76;nan;100209.94;5027839;28;20525;-86
2022/01/08 12:59:10;;;;;;;;;;;;;;;3.74;nan;100204.03;5031284;28;19921;-86
2022/01/08 13:01:37;;;;;;;;;;;;;;;3.69;nan;100194.84;5027697;28;20226;-85
2022/01/08 13:04:03;;;;;;;;;;;;;;;3.69;nan;100197.47;5019388;28;19940;-86
2022/01/08 13:06:37;;;;;;;;;;;;;;;3.64;nan;100191.75;5029306;28;19922;-87
2022/01/08 13:09:03;;;;;;;;;;;;;;;3.59;nan;100184.25;5021436;28;19973;-86
2022/01/08 13:11:32;;;;;;;;;;;;;;;3.54;nan;100178.53;5024935;28;19924;-86
2022/01/08 13:14:00;;;;;;;;;;;;;;;3.34;nan;100180.03;5031670;28;19952;-86
2022/01/08 13:16:28;;;;;;;;;;;;;;;3.58;nan;100183.41;5029882;28;19929;-86
2022/01/08 13:18:55;;;;;;;;;;;;;;;3.51;nan;100171.75;5030930;28;19922;-85
2022/01/08 13:21:22;;;;;;;;;;;;;;;3.43;nan;100160.19;5024690;28;20449;-85
2022/01/08 13:23:50;;;;;;;;;;;;;;;3.45;nan;100155.69;5033034;28;20008;-85
2022/01/08 13:26:16;;;;;;;;;;;;;;;3.37;nan;100149.25;5031599;28;20167;-86
2022/01/08 13:28:47;;;;;;;;;;;;;;;3.40;nan;100143.78;5031049;28;20066;-85
2022/01/08 13:31:12;;;;;;;;;;;;;;;3.45;nan;100143.44;5026330;28;19997;-86
2022/01/08 13:33:40;;;;;;;;;;;;;;;3.46;nan;100136.47;5027183;28;20506;-87
2022/01/08 13:36:09;;;;;;;;;;;;;;;3.43;nan;100132.28;5032427;28;19963;-86